Terminal Aerodrome Forecast
Issued by NWS

Home | Current Version | Previous Version | Graphics & Text | Print | Product List | Glossary On
Versions: 1 2 3 4 5 6 7 8 9 10 11 12 13 14 15 16 17 18 19 20 21
000
FTUS43 KIWX 201131 AAB
TAFSBN
TAF AMD
KSBN 201131Z 2012/2112 10005KT 4SM -RA BR OVC006
     FM201400 16005KT 2SM -DZ BR OVC004
     FM202000 23006KT 4SM BR OVC006
     FM210600 13006KT 2SM BR OVC004=

USA.gov is the U.S. government's official web portal to all federal, state and local government web resources and services.